Time;durP1;ratioP1;P1;durP2;ratioP2;P2;SDS_P1;SDS_P2;PMS_P1;PMS_P2;Temp;Humidity;BMP_temperature;BMP_pressure;BME280_temperature;BME280_humidity;BME280_pressure;Samples;Min_cycle;Max_cycle;Signal;HPM_P1;HPM_P2
2023/08/03 00:01:41;;;;;;;;;;;;;;;;;;5014325;28;89741;-65
2023/08/03 00:04:06;;;;;;;;;;;;;;;;;;5011706;28;89842;-65
2023/08/03 00:06:32;;;;;;;;;;;;;;;;;;5011078;28;89614;-66
2023/08/03 00:08:57;;;;;;;;;;;;;;;;;;5010529;28;89436;-71
2023/08/03 00:11:22;;;;;;;;;;;;;;;;;;5012515;28;89265;-75
2023/08/03 00:13:47;;;;;;;;;;;;;;;;;;5009994;28;89891;-72
2023/08/03 00:16:12;;;;;;;;;;;;;;;;;;5012716;28;89611;-74
2023/08/03 00:18:38;;;;;;;;;;;;;;;;;;5013186;28;89039;-67
2023/08/03 00:21:03;;;;;;;;;;;;;;;;;;5009270;28;90283;-66
2023/08/03 00:23:28;;;;;;;;;;;;;;;;;;5012230;28;89162;-66
2023/08/03 00:25:53;;;;;;;;;;;;;;;;;;5015794;28;90114;-69
2023/08/03 00:28:21;;;;;;;;;;;;;;;;;;5012642;28;90251;-65
2023/08/03 00:30:46;;;;;;;;;;;;;;;;;;5009215;28;89420;-65
2023/08/03 00:33:11;;;;;;;;;;;;;;;;;;5011641;28;89566;-66
2023/08/03 00:35:36;;;;;;;;;;;;;;;;;;5009729;28;90006;-71
2023/08/03 00:38:02;;;;;;;;;;;;;;;;;;5009937;28;89473;-64
2023/08/03 00:40:27;;;;;;;;;;;;;;;;;;5009518;28;89625;-69
2023/08/03 00:42:52;;;;;;;;;;;;;;;;;;5010783;28;89268;-75
2023/08/03 00:45:17;;;;;;;;;;;;;;;;;;5012087;28;89036;-70
2023/08/03 00:47:42;;;;;;;;;;;;;;;;;;5018590;28;90851;-74
2023/08/03 00:50:08;;;;;;;;;;;;;;;;;;5009892;28;89402;-75
2023/08/03 00:52:34;;;;;;;;;;;;;;;;;;5009114;28;89484;-70
2023/08/03 00:54:59;;;;;;;;;;;;;;;;;;5010328;28;90612;-67
2023/08/03 00:57:24;;;;;;;;;;;;;;;;;;5012181;28;89527;-70
2023/08/03 00:59:49;;;;;;;;;;;;;;;;;;5012045;28;89722;-70
2023/08/03 01:02:15;;;;;;;;;;;;;;;;;;5010770;28;89649;-73
2023/08/03 01:04:40;;;;;;;;;;;;;;;;;;5012006;28;90021;-72
2023/08/03 01:07:05;;;;;;;;;;;;;;;;;;5011152;28;89501;-73
2023/08/03 01:09:31;;;;;;;;;;;;;;;;;;5015329;28;90894;-72
2023/08/03 01:11:56;;;;;;;;;;;;;;;;;;5010279;28;90750;-70
2023/08/03 01:14:21;;;;;;;;;;;;;;;;;;5009588;28;91036;-74
2023/08/03 01:16:46;;;;;;;;;;;;;;;;;;5011660;28;89089;-71
2023/08/03 01:19:12;;;;;;;;;;;;;;;;;;5008887;28;89586;-75
2023/08/03 01:21:38;;;;;;;;;;;;;;;;;;5008982;28;89191;-73
2023/08/03 01:24:04;;;;;;;;;;;;;;;;;;5010519;28;89058;-64
2023/08/03 01:26:29;;;;;;;;;;;;;;;;;;5009120;28;89695;-70
2023/08/03 01:28:54;;;;;;;;;;;;;;;;;;5012644;28;89626;-74
2023/08/03 01:31:20;;;;;;;;;;;;;;;;;;5013053;28;89293;-65
2023/08/03 01:33:45;;;;;;;;;;;;;;;;;;5009978;28;89627;-66
2023/08/03 01:36:10;;;;;;;;;;;;;;;;;;5008385;28;89061;-65
2023/08/03 01:38:35;;;;;;;;;;;;;;;;;;5008082;28;89555;-64
2023/08/03 01:41:01;;;;;;;;;;;;;;;;;;4999842;28;91225;-65
2023/08/03 01:43:26;;;;;;;;;;;;;;;;;;5010478;28;91359;-64
2023/08/03 01:45:51;;;;;;;;;;;;;;;;;;5010925;28;90594;-64
2023/08/03 01:48:16;;;;;;;;;;;;;;;;;;5012968;27;89271;-64
2023/08/03 01:50:42;;;;;;;;;;;;;;;;;;5007743;28;89428;-64
2023/08/03 01:53:07;;;;;;;;;;;;;;;;;;5012590;28;89299;-73
2023/08/03 01:55:32;;;;;;;;;;;;;;;;;;5009345;28;89528;-69
2023/08/03 01:57:57;;;;;;;;;;;;;;;;;;5011698;28;90699;-64
2023/08/03 02:00:24;;;;;;;;;;;;;;;;;;5009460;28;90384;-64
2023/08/03 02:02:51;;;;;;;;;;;;;;;;;;5009497;28;89603;-69
2023/08/03 02:05:16;;;;;;;;;;;;;;;;;;5012440;28;90634;-68
2023/08/03 02:07:42;;;;;;;;;;;;;;;;;;5010348;28;89284;-67
2023/08/03 02:10:09;;;;;;;;;;;;;;;;;;5009778;28;89952;-73
2023/08/03 02:12:34;;;;;;;;;;;;;;;;;;5015136;28;90353;-67
2023/08/03 02:14:59;;;;;;;;;;;;;;;;;;5008266;28;89994;-66
2023/08/03 02:17:26;;;;;;;;;;;;;;;;;;5011070;28;89721;-72
2023/08/03 02:19:52;;;;;;;;;;;;;;;;;;5006997;28;89185;-75
2023/08/03 02:22:17;;;;;;;;;;;;;;;;;;5008254;28;89496;-74
2023/08/03 02:24:42;;;;;;;;;;;;;;;;;;5008560;28;90670;-74
2023/08/03 02:27:07;;;;;;;;;;;;;;;;;;5007234;28;89687;-74
2023/08/03 02:29:32;;;;;;;;;;;;;;;;;;5011241;28;89979;-66
2023/08/03 02:31:57;;;;;;;;;;;;;;;;;;5012092;28;89654;-69
2023/08/03 02:34:23;;;;;;;;;;;;;;;;;;5012889;28;89038;-66
2023/08/03 02:36:48;;;;;;;;;;;;;;;;;;5013562;28;89425;-65
2023/08/03 02:39:13;;;;;;;;;;;;;;;;;;5013658;28;90205;-69
2023/08/03 02:41:38;;;;;;;;;;;;;;;;;;5014142;28;89102;-73
2023/08/03 02:44:04;;;;;;;;;;;;;;;;;;5015889;28;89458;-66
2023/08/03 02:46:30;;;;;;;;;;;;;;;;;;5016026;28;89797;-69
2023/08/03 02:48:55;;;;;;;;;;;;;;;;;;5012424;28;89148;-73
2023/08/03 02:51:21;;;;;;;;;;;;;;;;;;5010840;28;89578;-68
2023/08/03 02:53:46;;;;;;;;;;;;;;;;;;5009627;28;89950;-69
2023/08/03 02:56:11;;;;;;;;;;;;;;;;;;5014085;28;89922;-75
2023/08/03 02:58:36;;;;;;;;;;;;;;;;;;5011432;28;89113;-75
2023/08/03 03:01:04;;;;;;;;;;;;;;;;;;5010300;28;89291;-72
2023/08/03 03:03:29;;;;;;;;;;;;;;;;;;5010115;28;89941;-74
2023/08/03 03:05:54;;;;;;;;;;;;;;;;;;5010676;28;89194;-73
2023/08/03 03:08:20;;;;;;;;;;;;;;;;;;5012118;28;89085;-74
2023/08/03 03:10:45;;;;;;;;;;;;;;;;;;5011068;28;89839;-73
2023/08/03 03:13:10;;;;;;;;;;;;;;;;;;5010201;28;90118;-75
2023/08/03 03:15:35;;;;;;;;;;;;;;;;;;5010718;28;90711;-64
2023/08/03 03:18:01;;;;;;;;;;;;;;;;;;5012696;28;90209;-66
2023/08/03 03:20:26;;;;;;;;;;;;;;;;;;5012394;28;89779;-64
2023/08/03 03:22:51;;;;;;;;;;;;;;;;;;5015293;28;89894;-67
2023/08/03 03:25:16;;;;;;;;;;;;;;;;;;5011126;28;89163;-68
2023/08/03 03:27:41;;;;;;;;;;;;;;;;;;5013658;28;89057;-64
2023/08/03 03:30:07;;;;;;;;;;;;;;;;;;5014235;28;89549;-67
2023/08/03 03:32:32;;;;;;;;;;;;;;;;;;5010143;28;90407;-68
2023/08/03 03:34:57;;;;;;;;;;;;;;;;;;5013534;28;89068;-64
2023/08/03 03:37:23;;;;;;;;;;;;;;;;;;5007467;28;91136;-65
2023/08/03 03:39:48;;;;;;;;;;;;;;;;;;5012416;28;90288;-65
2023/08/03 03:42:13;;;;;;;;;;;;;;;;;;5013250;28;90810;-65
2023/08/03 03:44:38;;;;;;;;;;;;;;;;;;5008792;28;89887;-70
2023/08/03 03:47:04;;;;;;;;;;;;;;;;;;5010246;28;89632;-65
2023/08/03 03:49:29;;;;;;;;;;;;;;;;;;5012209;28;91540;-63
2023/08/03 03:51:54;;;;;;;;;;;;;;;;;;5008806;28;90099;-65
2023/08/03 03:54:20;;;;;;;;;;;;;;;;;;5011024;28;89065;-65
2023/08/03 03:56:45;;;;;;;;;;;;;;;;;;5009408;28;89100;-70
2023/08/03 03:59:10;;;;;;;;;;;;;;;;;;5017217;28;90702;-70
2023/08/03 04:01:35;;;;;;;;;;;;;;;;;;5009995;28;90003;-72
2023/08/03 04:04:00;;;;;;;;;;;;;;;;;;5012226;28;89305;-75
2023/08/03 04:06:26;;;;;;;;;;;;;;;;;;5013410;28;89095;-75
2023/08/03 04:08:51;;;;;;;;;;;;;;;;;;5014042;28;89576;-73
2023/08/03 04:11:16;;;;;;;;;;;;;;;;;;5013813;28;89572;-64
2023/08/03 04:13:41;;;;;;;;;;;;;;;;;;5009472;28;89367;-64
2023/08/03 04:16:06;;;;;;;;;;;;;;;;;;5004572;28;90174;-70
2023/08/03 04:18:32;;;;;;;;;;;;;;;;;;5011020;28;89562;-65
2023/08/03 04:20:57;;;;;;;;;;;;;;;;;;5020011;28;89632;-70
2023/08/03 04:23:22;;;;;;;;;;;;;;;;;;5010749;28;89921;-69
2023/08/03 04:25:47;;;;;;;;;;;;;;;;;;5011689;28;89090;-65
2023/08/03 04:28:12;;;;;;;;;;;;;;;;;;5009829;28;89851;-71
2023/08/03 04:30:38;;;;;;;;;;;;;;;;;;5011631;28;89349;-70
2023/08/03 04:33:03;;;;;;;;;;;;;;;;;;5010351;28;88972;-65
2023/08/03 04:35:28;;;;;;;;;;;;;;;;;;5009603;28;90876;-72
2023/08/03 04:37:53;;;;;;;;;;;;;;;;;;5009278;28;89794;-74
2023/08/03 04:40:19;;;;;;;;;;;;;;;;;;5010087;28;89118;-71
2023/08/03 04:42:44;;;;;;;;;;;;;;;;;;5016781;28;89539;-65
2023/08/03 04:45:09;;;;;;;;;;;;;;;;;;5008343;28;90036;-68
2023/08/03 04:47:34;;;;;;;;;;;;;;;;;;5011394;28;90538;-68
2023/08/03 04:49:59;;;;;;;;;;;;;;;;;;5009090;28;90042;-71
2023/08/03 04:52:25;;;;;;;;;;;;;;;;;;5008698;28;90493;-73
2023/08/03 04:54:50;;;;;;;;;;;;;;;;;;5013609;28;90710;-69
2023/08/03 04:57:15;;;;;;;;;;;;;;;;;;5011891;28;89676;-67
2023/08/03 04:59:41;;;;;;;;;;;;;;;;;;5009062;28;89105;-72
2023/08/03 05:02:06;;;;;;;;;;;;;;;;;;5012842;28;89550;-72
2023/08/03 05:04:31;;;;;;;;;;;;;;;;;;5013761;28;89380;-70
2023/08/03 05:06:56;;;;;;;;;;;;;;;;;;5009715;28;90025;-73
2023/08/03 05:09:21;;;;;;;;;;;;;;;;;;5013143;28;90340;-75
2023/08/03 05:11:47;;;;;;;;;;;;;;;;;;5008344;28;89133;-75
2023/08/03 05:14:12;;;;;;;;;;;;;;;;;;5013266;28;89463;-75
2023/08/03 05:16:37;;;;;;;;;;;;;;;;;;5014415;28;89342;-69
2023/08/03 05:19:02;;;;;;;;;;;;;;;;;;5007885;28;89641;-68
2023/08/03 05:21:27;;;;;;;;;;;;;;;;;;5009787;28;89791;-66
2023/08/03 05:23:53;;;;;;;;;;;;;;;;;;5011338;28;89471;-69
2023/08/03 05:26:18;;;;;;;;;;;;;;;;;;5011717;28;89095;-69
2023/08/03 05:28:43;;;;;;;;;;;;;;;;;;5008263;28;89187;-66
2023/08/03 05:31:08;;;;;;;;;;;;;;;;;;5009526;28;89142;-68
2023/08/03 05:33:34;;;;;;;;;;;;;;;;;;4994587;28;90933;-75
2023/08/03 05:36:00;;;;;;;;;;;;;;;;;;5011376;28;89317;-82
2023/08/03 05:38:25;;;;;;;;;;;;;;;;;;5005574;28;90306;-79
2023/08/03 05:40:50;;;;;;;;;;;;;;;;;;5007532;28;90653;-78
2023/08/03 05:43:16;;;;;;;;;;;;;;;;;;5002864;28;90419;-74
2023/08/03 05:45:42;;;;;;;;;;;;;;;;;;5005432;28;90070;-66
2023/08/03 05:48:13;;;;;;;;;;;;;;;;;;5007996;28;89957;-68
2023/08/03 05:50:40;;;;;;;;;;;;;;;;;;5005564;28;89369;-70
2023/08/03 05:53:06;;;;;;;;;;;;;;;;;;5003069;28;90086;-68
2023/08/03 05:55:31;;;;;;;;;;;;;;;;;;4996675;28;90287;-66
2023/08/03 05:57:56;;;;;;;;;;;;;;;;;;5006359;28;89468;-69
2023/08/03 06:00:22;;;;;;;;;;;;;;;;;;5008318;28;90102;-69
2023/08/03 06:02:47;;;;;;;;;;;;;;;;;;5007219;28;89262;-65
2023/08/03 06:05:31;;;;;;;;;;;;;;;;;;5015563;28;89378;-75
2023/08/03 06:07:56;;;;;;;;;;;;;;;;;;5012809;28;89584;-79
2023/08/03 06:10:21;;;;;;;;;;;;;;;;;;5008869;28;89675;-74
2023/08/03 06:12:46;;;;;;;;;;;;;;;;;;5010407;28;89645;-80
2023/08/03 06:15:12;;;;;;;;;;;;;;;;;;5011038;28;90443;-81
2023/08/03 06:17:37;;;;;;;;;;;;;;;;;;5007606;28;90134;-79
2023/08/03 06:20:11;;;;;;;;;;;;;;;;;;5010334;28;89745;-66
2023/08/03 06:22:36;;;;;;;;;;;;;;;;;;5011985;28;90389;-65
2023/08/03 06:25:05;;;;;;;;;;;;;;;;;;5009734;28;89755;-66
2023/08/03 06:27:30;;;;;;;;;;;;;;;;;;5010780;28;89924;-65
2023/08/03 06:29:55;;;;;;;;;;;;;;;;;;5013515;28;90600;-66
2023/08/03 06:32:22;;;;;;;;;;;;;;;;;;5009797;28;89583;-67
2023/08/03 06:34:47;;;;;;;;;;;;;;;;;;5011802;28;90196;-66
2023/08/03 06:37:13;;;;;;;;;;;;;;;;;;5011278;28;89412;-65
2023/08/03 06:39:38;;;;;;;;;;;;;;;;;;5009436;28;90415;-68
2023/08/03 06:42:04;;;;;;;;;;;;;;;;;;5010327;28;90039;-67
2023/08/03 06:44:29;;;;;;;;;;;;;;;;;;5012069;28;89413;-70
2023/08/03 06:46:54;;;;;;;;;;;;;;;;;;5012311;28;89861;-79
2023/08/03 06:49:20;;;;;;;;;;;;;;;;;;5007635;28;90621;-71
2023/08/03 06:51:45;;;;;;;;;;;;;;;;;;5012835;28;89859;-67
2023/08/03 06:54:10;;;;;;;;;;;;;;;;;;5011545;28;90166;-65
2023/08/03 06:59:21;;;;;;;;;;;;;;;;;;1947206;22;90063;-67
2023/08/03 07:01:47;;;;;;;;;;;;;;;;;;5000575;27;90056;-78
2023/08/03 07:04:13;;;;;;;;;;;;;;;;;;5011461;28;89463;-67
2023/08/03 07:06:38;;;;;;;;;;;;;;;;;;5009350;28;92469;-65
2023/08/03 07:09:03;;;;;;;;;;;;;;;;;;5007169;27;90111;-66
2023/08/03 07:11:30;;;;;;;;;;;;;;;;;;5012292;28;89005;-68
2023/08/03 07:49:56;;;;;;;;;;;;;;;;;;5060987;27;82612;-65
2023/08/03 07:52:21;;;;;;;;;;;;;;;;;;5045818;27;89570;-66
2023/08/03 07:54:46;;;;;;;;;;;;;;;;;;5043918;27;89289;-65
2023/08/03 07:57:15;;;;;;;;;;;;;;;;;;5045224;27;89583;-65
2023/08/03 07:59:40;;;;;;;;;;;;;;;;;;5047509;27;89962;-67
2023/08/03 08:02:06;;;;;;;;;;;;;;;;;;5045607;27;89123;-65
2023/08/03 08:04:31;;;;;;;;;;;;;;;;;;5046899;27;89526;-66
2023/08/03 08:06:56;;;;;;;;;;;;;;;;;;5046842;27;90912;-66
2023/08/03 08:09:22;;;;;;;;;;;;;;;;;;5049879;27;89750;-66
2023/08/03 08:11:47;;;;;;;;;;;;;;;;;;5043935;27;91074;-66
2023/08/03 08:14:12;;;;;;;;;;;;;;;;;;5046355;27;89598;-67
2023/08/03 08:16:38;;;;;;;;;;;;;;;;;;5047386;27;89040;-65
2023/08/03 08:19:04;;;;;;;;;;;;;;;;;;5045167;27;90949;-64
2023/08/03 08:21:29;;;;;;;;;;;;;;;;;;5046271;27;90587;-67
2023/08/03 08:23:54;;;;;;;;;;;;;;;;;;5046207;27;90085;-65
2023/08/03 08:26:20;;;;;;;;;;;;;;;;;;5045149;27;89882;-70
2023/08/03 08:28:46;;;;;;;;;;;;;;;;;;5042481;27;89318;-65
2023/08/03 08:31:11;;;;;;;;;;;;;;;;;;5048807;27;91170;-66
2023/08/03 08:33:37;;;;;;;;;;;;;;;;;;5045208;27;91871;-65
2023/08/03 08:36:03;;;;;;;;;;;;;;;;;;5047008;27;88952;-65
2023/08/03 08:38:29;;;;;;;;;;;;;;;;;;5045864;27;90787;-64
2023/08/03 08:40:54;;;;;;;;;;;;;;;;;;5035272;27;89672;-65
2023/08/03 08:43:20;;;;;;;;;;;;;;;;;;5045229;27;89703;-65
2023/08/03 08:45:45;;;;;;;;;;;;;;;;;;5047433;27;90718;-67
2023/08/03 08:48:10;;;;;;;;;;;;;;;;;;5045088;27;89161;-65
2023/08/03 08:50:36;;;;;;;;;;;;;;;;;;5042361;27;89421;-64
2023/08/03 08:53:01;;;;;;;;;;;;;;;;;;5046404;27;92220;-64
2023/08/03 08:55:27;;;;;;;;;;;;;;;;;;5045748;27;89500;-64
2023/08/03 08:57:52;;;;;;;;;;;;;;;;;;5045914;27;89995;-65
2023/08/03 09:00:18;;;;;;;;;;;;;;;;;;5037560;27;89382;-65
2023/08/03 09:02:44;;;;;;;;;;;;;;;;;;5028026;27;89884;-64
2023/08/03 09:05:17;;;;;;;;;;;;;;;;;;5032455;27;90525;-64
2023/08/03 09:07:43;;;;;;;;;;;;;;;;;;5031941;27;89426;-65
2023/08/03 09:10:09;;;;;;;;;;;;;;;;;;5024665;27;89822;-66
2023/08/03 09:12:35;;;;;;;;;;;;;;;;;;5025862;27;89875;-67
2023/08/03 09:15:00;;;;;;;;;;;;;;;;;;5027592;27;90299;-65
2023/08/03 09:17:26;;;;;;;;;;;;;;;;;;5029005;27;89942;-68
2023/08/03 09:19:52;;;;;;;;;;;;;;;;;;5026797;27;89556;-67
2023/08/03 09:22:18;;;;;;;;;;;;;;;;;;5025186;27;90974;-67
2023/08/03 09:24:47;;;;;;;;;;;;;;;;;;5026771;27;89487;-67
2023/08/03 09:27:19;;;;;;;;;;;;;;;;;;5029344;27;91043;-65
2023/08/03 09:29:44;;;;;;;;;;;;;;;;;;5025951;27;89963;-64
2023/08/03 09:32:11;;;;;;;;;;;;;;;;;;5025789;27;90187;-66
2023/08/03 09:34:42;;;;;;;;;;;;;;;;;;5026585;27;89798;-66
2023/08/03 09:37:07;;;;;;;;;;;;;;;;;;5030489;27;90572;-70
2023/08/03 09:39:34;;;;;;;;;;;;;;;;;;5027582;27;89185;-65
2023/08/03 09:42:07;;;;;;;;;;;;;;;;;;5028508;27;89281;-70
2023/08/03 09:44:36;;;;;;;;;;;;;;;;;;5031836;27;90745;-68
2023/08/03 09:47:02;;;;;;;;;;;;;;;;;;5028686;27;90187;-64
2023/08/03 09:49:27;;;;;;;;;;;;;;;;;;5027371;27;89636;-64
2023/08/03 09:51:55;;;;;;;;;;;;;;;;;;5028660;27;90806;-64
2023/08/03 09:54:42;;;;;;;;;;;;;;;;;;5024979;27;90108;-64
2023/08/03 09:57:09;;;;;;;;;;;;;;;;;;5026594;27;89922;-69
2023/08/03 09:59:36;;;;;;;;;;;;;;;;;;5028986;27;90249;-69
2023/08/03 10:02:02;;;;;;;;;;;;;;;;;;5024457;27;89231;-64
2023/08/03 10:04:31;;;;;;;;;;;;;;;;;;5023896;27;90075;-63
2023/08/03 10:06:59;;;;;;;;;;;;;;;;;;5026970;27;90169;-69
2023/08/03 10:09:27;;;;;;;;;;;;;;;;;;5023893;27;90420;-65
2023/08/03 10:11:55;;;;;;;;;;;;;;;;;;5021939;27;90767;-70
2023/08/03 10:14:22;;;;;;;;;;;;;;;;;;5028117;27;89471;-66
2023/08/03 10:16:48;;;;;;;;;;;;;;;;;;5025152;27;89059;-69
2023/08/03 10:19:14;;;;;;;;;;;;;;;;;;5025459;27;89709;-67
2023/08/03 10:21:39;;;;;;;;;;;;;;;;;;5029074;27;90030;-64
2023/08/03 10:24:11;;;;;;;;;;;;;;;;;;5025861;27;90057;-63
2023/08/03 10:26:36;;;;;;;;;;;;;;;;;;5027952;27;89583;-70
2023/08/03 10:29:01;;;;;;;;;;;;;;;;;;5023883;27;89050;-66
2023/08/03 10:31:28;;;;;;;;;;;;;;;;;;5026965;27;91062;-68
2023/08/03 10:33:53;;;;;;;;;;;;;;;;;;5025608;27;90343;-72
2023/08/03 10:36:31;;;;;;;;;;;;;;;;;;5025934;27;89462;-72
2023/08/03 10:38:58;;;;;;;;;;;;;;;;;;5028386;27;90111;-72
2023/08/03 10:41:24;;;;;;;;;;;;;;;;;;5023447;27;89469;-73
2023/08/03 10:44:04;;;;;;;;;;;;;;;;;;5026156;27;89941;-71
2023/08/03 10:46:30;;;;;;;;;;;;;;;;;;5025127;27;90178;-71
2023/08/03 10:48:55;;;;;;;;;;;;;;;;;;5025237;27;89909;-70
2023/08/03 10:51:22;;;;;;;;;;;;;;;;;;5027620;27;89717;-71
2023/08/03 10:53:47;;;;;;;;;;;;;;;;;;5026598;27;89753;-66
2023/08/03 10:56:14;;;;;;;;;;;;;;;;;;5025913;27;90494;-70
2023/08/03 10:58:50;;;;;;;;;;;;;;;;;;5030011;27;90309;-69
2023/08/03 11:01:22;;;;;;;;;;;;;;;;;;5027028;27;90882;-68
2023/08/03 11:03:47;;;;;;;;;;;;;;;;;;5028432;27;89142;-69
2023/08/03 11:06:13;;;;;;;;;;;;;;;;;;5026855;27;92232;-71
2023/08/03 11:08:39;;;;;;;;;;;;;;;;;;5026456;27;90563;-70
2023/08/03 11:11:04;;;;;;;;;;;;;;;;;;5029890;27;89667;-68
2023/08/03 11:13:29;;;;;;;;;;;;;;;;;;5024852;27;89897;-70
2023/08/03 11:15:54;;;;;;;;;;;;;;;;;;5025785;27;89150;-66
2023/08/03 11:18:20;;;;;;;;;;;;;;;;;;5025517;27;89758;-67
2023/08/03 11:20:45;;;;;;;;;;;;;;;;;;5029722;27;92130;-65
2023/08/03 11:23:13;;;;;;;;;;;;;;;;;;5029643;27;89703;-69
2023/08/03 11:25:39;;;;;;;;;;;;;;;;;;5029454;27;91686;-65
2023/08/03 11:28:04;;;;;;;;;;;;;;;;;;5024828;27;90328;-65
2023/08/03 11:30:30;;;;;;;;;;;;;;;;;;5029933;27;89697;-67
2023/08/03 11:32:56;;;;;;;;;;;;;;;;;;5025716;27;89969;-68
2023/08/03 11:35:21;;;;;;;;;;;;;;;;;;5026443;27;89122;-69
2023/08/03 11:37:46;;;;;;;;;;;;;;;;;;5026714;27;89696;-67
2023/08/03 11:40:12;;;;;;;;;;;;;;;;;;5025709;27;89387;-70
2023/08/03 11:42:38;;;;;;;;;;;;;;;;;;5024469;27;89056;-66
2023/08/03 11:45:04;;;;;;;;;;;;;;;;;;5028472;27;91368;-68
2023/08/03 11:47:43;;;;;;;;;;;;;;;;;;5029436;27;89685;-72
2023/08/03 11:50:08;;;;;;;;;;;;;;;;;;5023965;27;89782;-70
2023/08/03 11:52:33;;;;;;;;;;;;;;;;;;5030198;27;89813;-73
2023/08/03 11:54:58;;;;;;;;;;;;;;;;;;5028523;27;89698;-74
2023/08/03 12:00:09;;;;;;;;;;;;;;;;;;5026090;27;89389;-62
2023/08/03 12:02:41;;;;;;;;;;;;;;;;;;5030118;27;89127;-62
2023/08/03 12:05:06;;;;;;;;;;;;;;;;;;5027861;27;89694;-61
2023/08/03 12:07:32;;;;;;;;;;;;;;;;;;5032872;27;89645;-61
2023/08/03 12:09:57;;;;;;;;;;;;;;;;;;5028599;27;90995;-61
2023/08/03 12:12:22;;;;;;;;;;;;;;;;;;5029007;27;89384;-61
2023/08/03 12:14:47;;;;;;;;;;;;;;;;;;5029467;27;89734;-72
2023/08/03 12:17:13;;;;;;;;;;;;;;;;;;5028926;27;90232;-72
2023/08/03 12:19:38;;;;;;;;;;;;;;;;;;5024138;27;89347;-72
2023/08/03 12:22:03;;;;;;;;;;;;;;;;;;5029187;27;90927;-72
2023/08/03 12:24:29;;;;;;;;;;;;;;;;;;5029867;27;90682;-68
2023/08/03 12:26:55;;;;;;;;;;;;;;;;;;5026608;27;90661;-68
2023/08/03 12:29:20;;;;;;;;;;;;;;;;;;5031462;27;89783;-72
2023/08/03 12:31:45;;;;;;;;;;;;;;;;;;5029222;27;90765;-71
2023/08/03 12:34:10;;;;;;;;;;;;;;;;;;5028391;27;89114;-72
2023/08/03 12:36:35;;;;;;;;;;;;;;;;;;5032007;27;89732;-72
2023/08/03 12:39:01;;;;;;;;;;;;;;;;;;5032323;27;89276;-73
2023/08/03 12:41:26;;;;;;;;;;;;;;;;;;5031088;27;89885;-71
2023/08/03 12:43:51;;;;;;;;;;;;;;;;;;5032483;27;91386;-73
2023/08/03 12:46:17;;;;;;;;;;;;;;;;;;5031291;27;90046;-74
2023/08/03 12:48:42;;;;;;;;;;;;;;;;;;5033128;27;90297;-73
2023/08/03 12:51:07;;;;;;;;;;;;;;;;;;5034877;27;89864;-73
2023/08/03 12:53:32;;;;;;;;;;;;;;;;;;5027354;27;89365;-72
2023/08/03 12:55:58;;;;;;;;;;;;;;;;;;5031459;27;90059;-71
2023/08/03 12:58:23;;;;;;;;;;;;;;;;;;5032480;27;90053;-74
2023/08/03 13:00:48;;;;;;;;;;;;;;;;;;5029340;27;89843;-73
2023/08/03 13:03:14;;;;;;;;;;;;;;;;;;5029358;27;90689;-73
2023/08/03 13:05:39;;;;;;;;;;;;;;;;;;5032205;27;89438;-73
2023/08/03 13:08:04;;;;;;;;;;;;;;;;;;5032348;27;90400;-71
2023/08/03 13:10:29;;;;;;;;;;;;;;;;;;5032225;27;89734;-73
2023/08/03 13:12:55;;;;;;;;;;;;;;;;;;5034629;27;89365;-72
2023/08/03 13:15:20;;;;;;;;;;;;;;;;;;5031027;27;89685;-72
2023/08/03 13:17:45;;;;;;;;;;;;;;;;;;5031916;27;89297;-74
2023/08/03 13:20:10;;;;;;;;;;;;;;;;;;5031174;27;89145;-73
2023/08/03 13:22:36;;;;;;;;;;;;;;;;;;5031508;27;89779;-73
2023/08/03 13:25:02;;;;;;;;;;;;;;;;;;5030708;27;89341;-74
2023/08/03 13:27:27;;;;;;;;;;;;;;;;;;5031791;27;89014;-74
2023/08/03 13:29:53;;;;;;;;;;;;;;;;;;5030112;27;90584;-73
2023/08/03 13:32:19;;;;;;;;;;;;;;;;;;5030634;27;89853;-73
2023/08/03 13:34:44;;;;;;;;;;;;;;;;;;5033102;27;90021;-68
2023/08/03 13:37:10;;;;;;;;;;;;;;;;;;5030218;27;90028;-73
2023/08/03 13:39:35;;;;;;;;;;;;;;;;;;5031269;27;89492;-64
2023/08/03 13:42:00;;;;;;;;;;;;;;;;;;5025904;27;89058;-68
2023/08/03 13:44:25;;;;;;;;;;;;;;;;;;5031590;27;90559;-67
2023/08/03 13:46:50;;;;;;;;;;;;;;;;;;5031453;27;89058;-73
2023/08/03 13:49:18;;;;;;;;;;;;;;;;;;5031067;27;89552;-70
2023/08/03 13:51:43;;;;;;;;;;;;;;;;;;5031464;27;90844;-72
2023/08/03 13:54:08;;;;;;;;;;;;;;;;;;5024093;27;90203;-69
2023/08/03 13:56:33;;;;;;;;;;;;;;;;;;5029872;27;89716;-66
2023/08/03 13:58:59;;;;;;;;;;;;;;;;;;5031209;27;89160;-72
2023/08/03 14:01:24;;;;;;;;;;;;;;;;;;5029729;27;90391;-74
2023/08/03 14:03:49;;;;;;;;;;;;;;;;;;5030669;27;90255;-73
2023/08/03 14:06:15;;;;;;;;;;;;;;;;;;5029874;27;89076;-74
2023/08/03 14:08:40;;;;;;;;;;;;;;;;;;5030582;27;89833;-70
2023/08/03 14:11:06;;;;;;;;;;;;;;;;;;5029334;27;91900;-65
2023/08/03 14:13:31;;;;;;;;;;;;;;;;;;5029329;27;90699;-66
2023/08/03 14:15:56;;;;;;;;;;;;;;;;;;5033700;27;90632;-61
2023/08/03 14:18:21;;;;;;;;;;;;;;;;;;5031472;27;90526;-68
2023/08/03 14:20:46;;;;;;;;;;;;;;;;;;5030716;27;90235;-69
2023/08/03 14:23:12;;;;;;;;;;;;;;;;;;5029534;27;89753;-61
2023/08/03 14:25:38;;;;;;;;;;;;;;;;;;5029672;27;90319;-61
2023/08/03 14:28:03;;;;;;;;;;;;;;;;;;5029944;27;90770;-63
2023/08/03 14:30:28;;;;;;;;;;;;;;;;;;5029366;27;89396;-61
2023/08/03 14:32:54;;;;;;;;;;;;;;;;;;5030336;27;89073;-69
2023/08/03 14:35:19;;;;;;;;;;;;;;;;;;5030423;27;89999;-69
2023/08/03 14:37:44;;;;;;;;;;;;;;;;;;5034749;27;89456;-74
2023/08/03 14:40:09;;;;;;;;;;;;;;;;;;5026324;27;90505;-74
2023/08/03 14:42:35;;;;;;;;;;;;;;;;;;5030602;27;90515;-74
2023/08/03 14:45:00;;;;;;;;;;;;;;;;;;5030448;27;89349;-72
2023/08/03 14:47:25;;;;;;;;;;;;;;;;;;5031357;27;90960;-72
2023/08/03 14:49:50;;;;;;;;;;;;;;;;;;5030926;27;89135;-73
2023/08/03 14:52:15;;;;;;;;;;;;;;;;;;5063197;27;89686;-73
2023/08/03 14:54:41;;;;;;;;;;;;;;;;;;5023881;27;90066;-73
2023/08/03 14:57:07;;;;;;;;;;;;;;;;;;5025816;27;92004;-72
2023/08/03 14:59:32;;;;;;;;;;;;;;;;;;5032625;27;89542;-73
2023/08/03 15:02:01;;;;;;;;;;;;;;;;;;5029444;27;89820;-74
2023/08/03 15:04:27;;;;;;;;;;;;;;;;;;5030070;27;89856;-73
2023/08/03 15:06:52;;;;;;;;;;;;;;;;;;5027343;27;89920;-74
2023/08/03 15:09:17;;;;;;;;;;;;;;;;;;5027488;27;89718;-74
2023/08/03 15:11:44;;;;;;;;;;;;;;;;;;5030833;27;89031;-74
2023/08/03 15:14:09;;;;;;;;;;;;;;;;;;5024101;27;90500;-75
2023/08/03 15:16:34;;;;;;;;;;;;;;;;;;5027809;27;90192;-75
2023/08/03 15:18:59;;;;;;;;;;;;;;;;;;5024786;27;89676;-74
2023/08/03 15:21:25;;;;;;;;;;;;;;;;;;5032047;27;89701;-74
2023/08/03 15:23:53;;;;;;;;;;;;;;;;;;5029848;27;89021;-74
2023/08/03 15:26:19;;;;;;;;;;;;;;;;;;5029512;27;91037;-74
2023/08/03 15:28:44;;;;;;;;;;;;;;;;;;5030626;27;89870;-74
2023/08/03 15:31:10;;;;;;;;;;;;;;;;;;5028168;27;90769;-74
2023/08/03 15:33:35;;;;;;;;;;;;;;;;;;5030596;27;89665;-74
2023/08/03 15:36:04;;;;;;;;;;;;;;;;;;5026711;27;89225;-68
2023/08/03 15:38:35;;;;;;;;;;;;;;;;;;5030304;27;89758;-75
2023/08/03 15:41:00;;;;;;;;;;;;;;;;;;5028089;27;90004;-69
2023/08/03 15:43:35;;;;;;;;;;;;;;;;;;5031090;27;90140;-75
2023/08/03 15:46:02;;;;;;;;;;;;;;;;;;5026835;27;89044;-75
2023/08/03 15:48:28;;;;;;;;;;;;;;;;;;5030194;27;89577;-72
2023/08/03 15:50:53;;;;;;;;;;;;;;;;;;5028989;27;89751;-74
2023/08/03 15:53:18;;;;;;;;;;;;;;;;;;5020795;27;89757;-69
2023/08/03 15:55:57;;;;;;;;;;;;;;;;;;5028487;27;89435;-72
2023/08/03 15:58:22;;;;;;;;;;;;;;;;;;5025093;27;89061;-73
2023/08/03 16:00:48;;;;;;;;;;;;;;;;;;5027293;27;89759;-75
2023/08/03 16:03:14;;;;;;;;;;;;;;;;;;5026667;27;89770;-71
2023/08/03 16:05:39;;;;;;;;;;;;;;;;;;5030101;27;89715;-71
2023/08/03 16:08:05;;;;;;;;;;;;;;;;;;5028724;27;89098;-70
2023/08/03 16:10:33;;;;;;;;;;;;;;;;;;5032071;27;89428;-63
2023/08/03 16:12:59;;;;;;;;;;;;;;;;;;5032602;27;90299;-69
2023/08/03 16:15:25;;;;;;;;;;;;;;;;;;5032971;27;89876;-75
2023/08/03 16:17:50;;;;;;;;;;;;;;;;;;5031975;27;90715;-71
2023/08/03 16:20:15;;;;;;;;;;;;;;;;;;5032982;27;90793;-73
2023/08/03 16:22:40;;;;;;;;;;;;;;;;;;5033378;27;89435;-69
2023/08/03 16:25:06;;;;;;;;;;;;;;;;;;5033825;27;89522;-69
2023/08/03 16:27:33;;;;;;;;;;;;;;;;;;5031951;27;91175;-63
2023/08/03 16:29:58;;;;;;;;;;;;;;;;;;5022912;27;89009;-64
2023/08/03 16:32:23;;;;;;;;;;;;;;;;;;5019718;27;91439;-65
2023/08/03 16:34:48;;;;;;;;;;;;;;;;;;5024704;27;89922;-65
2023/08/03 16:37:14;;;;;;;;;;;;;;;;;;5026421;27;89004;-61
2023/08/03 16:39:39;;;;;;;;;;;;;;;;;;5031889;27;91034;-64
2023/08/03 16:42:05;;;;;;;;;;;;;;;;;;5024406;27;89802;-68
2023/08/03 16:44:30;;;;;;;;;;;;;;;;;;5029607;27;89029;-64
2023/08/03 16:46:55;;;;;;;;;;;;;;;;;;5028526;27;90891;-65
2023/08/03 16:49:22;;;;;;;;;;;;;;;;;;5030806;27;89422;-65
2023/08/03 16:51:47;;;;;;;;;;;;;;;;;;5030893;27;90942;-67
2023/08/03 16:54:13;;;;;;;;;;;;;;;;;;5025141;27;89548;-68
2023/08/03 16:56:38;;;;;;;;;;;;;;;;;;5028206;27;90119;-70
2023/08/03 16:59:03;;;;;;;;;;;;;;;;;;5028279;27;91822;-67
2023/08/03 17:01:28;;;;;;;;;;;;;;;;;;5026318;27;92771;-61
2023/08/03 17:03:54;;;;;;;;;;;;;;;;;;5029261;27;89346;-62
2023/08/03 17:06:20;;;;;;;;;;;;;;;;;;5031057;27;89751;-74
2023/08/03 17:08:45;;;;;;;;;;;;;;;;;;5029988;27;90441;-69
2023/08/03 17:11:10;;;;;;;;;;;;;;;;;;5025018;27;89042;-73
2023/08/03 17:13:36;;;;;;;;;;;;;;;;;;5059402;27;91223;-63
2023/08/03 17:16:04;;;;;;;;;;;;;;;;;;5030625;27;89138;-69
2023/08/03 17:18:29;;;;;;;;;;;;;;;;;;5028926;27;89723;-69